createdAt,value
2022-08-20T00:02:14.229Z,28.63
2022-08-20T00:04:42.323Z,23.23
2022-08-20T00:07:11.730Z,24.92
2022-08-20T00:09:39.815Z,28.10
2022-08-20T00:12:08.442Z,27.55
2022-08-20T00:14:37.209Z,29.95
2022-08-20T00:17:06.737Z,29.05
2022-08-20T00:19:35.803Z,28.00
2022-08-20T00:22:03.887Z,31.45
2022-08-20T00:24:33.361Z,28.60
2022-08-20T00:27:01.497Z,28.83
2022-08-20T00:29:29.635Z,27.70
2022-08-20T00:31:57.697Z,35.15
2022-08-20T00:34:25.776Z,29.17
2022-08-20T00:36:53.765Z,28.95
2022-08-20T00:39:21.804Z,31.88
2022-08-20T00:41:52.018Z,28.15
2022-08-20T00:44:22.895Z,31.70
2022-08-20T00:46:51.848Z,35.47
2022-08-20T00:49:22.869Z,30.73
2022-08-20T00:51:55.592Z,32.10
2022-08-20T00:54:29.014Z,32.65
2022-08-20T00:57:03.536Z,32.95
2022-08-20T00:59:34.710Z,28.58
2022-08-20T01:02:03.825Z,30.23
2022-08-20T01:04:34.179Z,32.75
2022-08-20T01:07:02.258Z,34.63
2022-08-20T01:09:49.973Z,29.90
2022-08-20T01:12:23.291Z,35.47
2022-08-20T01:14:51.390Z,32.03
2022-08-20T01:17:24.316Z,38.58
2022-08-20T01:19:56.803Z,39.20
2022-08-20T01:22:50.663Z,35.50
2022-08-20T01:25:26.901Z,37.10
2022-08-20T01:27:57.736Z,36.67
2022-08-20T01:30:28.422Z,39.30
2022-08-20T01:32:56.994Z,37.70
2022-08-20T01:35:26.272Z,37.97
2022-08-20T01:37:54.470Z,38.33
2022-08-20T01:40:36.936Z,34.97
2022-08-20T01:43:06.505Z,41.35
2022-08-20T01:45:36.425Z,35.08
2022-08-20T01:48:06.529Z,33.05
2022-08-20T01:50:36.358Z,32.60
2022-08-20T01:53:16.035Z,28.90
2022-08-20T01:55:44.330Z,29.30
2022-08-20T01:58:14.500Z,29.83
2022-08-20T02:00:42.556Z,24.83
2022-08-20T02:03:10.830Z,22.90
2022-08-20T02:05:38.846Z,22.23
2022-08-20T02:08:06.998Z,26.27
2022-08-20T02:10:36.610Z,21.92
2022-08-20T02:13:08.594Z,21.55
2022-08-20T02:15:39.775Z,19.48
2022-08-20T02:18:15.431Z,19.88
2022-08-20T02:20:44.517Z,18.10
2022-08-20T02:23:13.168Z,26.02
2022-08-20T02:25:44.953Z,17.15
2022-08-20T02:28:19.330Z,21.25
2022-08-20T02:30:52.378Z,20.92
2022-08-20T02:33:24.433Z,21.55
2022-08-20T02:35:56.952Z,15.60
2022-08-20T02:38:25.476Z,18.25
2022-08-20T02:40:53.747Z,19.73
2022-08-20T02:43:21.774Z,25.63
2022-08-20T02:45:51.584Z,18.13
2022-08-20T02:48:22.984Z,17.58
2022-08-20T02:50:54.242Z,16.65
2022-08-20T02:53:23.016Z,17.05
2022-08-20T02:55:51.288Z,15.85
2022-08-20T02:58:20.518Z,16.17
2022-08-20T03:00:50.313Z,16.27
2022-08-20T03:03:22.622Z,15.93
2022-08-20T03:05:53.933Z,17.02
2022-08-20T03:08:22.717Z,19.60
2022-08-20T03:10:52.376Z,19.50
2022-08-20T03:13:20.864Z,15.60
2022-08-20T03:15:57.948Z,20.38
2022-08-20T03:18:30.158Z,17.00
2022-08-20T03:20:58.233Z,20.23
2022-08-20T03:23:26.346Z,17.17
2022-08-20T03:25:54.410Z,20.23
2022-08-20T03:28:22.452Z,17.48
2022-08-20T03:30:53.229Z,17.30
2022-08-20T03:33:22.266Z,20.13
2022-08-20T03:35:50.352Z,18.33
2022-08-20T03:38:21.563Z,19.98
2022-08-20T03:41:00.858Z,16.45
2022-08-20T03:43:29.221Z,17.17
2022-08-20T03:45:58.670Z,17.27
2022-08-20T03:48:26.813Z,16.70
2022-08-20T03:50:55.790Z,16.50
2022-08-20T03:53:23.989Z,21.90
2022-08-20T03:55:59.265Z,21.15
2022-08-20T03:58:34.961Z,13.05
2022-08-20T04:01:09.005Z,15.80
2022-08-20T04:03:58.689Z,17.15
2022-08-20T04:06:27.773Z,16.45
2022-08-20T04:08:56.173Z,19.15
2022-08-20T04:11:24.698Z,18.52
2022-08-20T04:13:52.802Z,18.58
2022-08-20T04:16:22.433Z,16.30
2022-08-20T04:19:02.082Z,15.50
2022-08-20T04:21:33.140Z,17.38
2022-08-20T04:24:02.308Z,14.85
2022-08-20T04:26:31.068Z,17.98
2022-08-20T04:28:59.590Z,19.90
2022-08-20T04:31:33.054Z,16.67
2022-08-20T04:34:02.142Z,17.50
2022-08-20T04:36:30.359Z,20.63
2022-08-20T04:38:58.428Z,15.07
2022-08-20T04:41:25.484Z,15.68
2022-08-20T04:43:54.780Z,16.70
2022-08-20T04:46:25.993Z,21.92
2022-08-20T04:48:55.936Z,18.85
2022-08-20T04:51:24.242Z,15.70
2022-08-20T04:53:54.288Z,23.13
2022-08-20T04:56:24.363Z,17.83
2022-08-20T04:58:53.977Z,19.98
2022-08-20T05:01:23.729Z,15.73
2022-08-20T05:03:54.814Z,14.00
2022-08-20T05:06:26.558Z,18.08
2022-08-20T05:08:55.885Z,18.88
2022-08-20T05:11:33.142Z,13.93
2022-08-20T05:14:07.748Z,15.90
2022-08-20T05:16:39.125Z,18.27
2022-08-20T05:19:09.036Z,16.38
2022-08-20T05:21:39.523Z,17.55
2022-08-20T05:24:08.018Z,16.95
2022-08-20T05:26:36.392Z,22.35
2022-08-20T05:29:06.459Z,20.88
2022-08-20T05:31:35.750Z,20.98
2022-08-20T05:34:04.199Z,17.33
2022-08-20T05:36:32.306Z,16.35
2022-08-20T05:39:02.135Z,17.88
2022-08-20T05:41:30.719Z,17.70
2022-08-20T05:44:01.829Z,15.52
2022-08-20T05:46:31.834Z,18.92
2022-08-20T05:49:01.586Z,14.75
2022-08-20T05:51:30.499Z,15.10
2022-08-20T05:53:59.490Z,17.38
2022-08-20T05:56:31.279Z,14.27
2022-08-20T05:59:02.961Z,17.02
2022-08-20T06:01:31.795Z,16.42
2022-08-20T06:04:17.545Z,15.52
2022-08-20T06:06:47.278Z,17.80
2022-08-20T06:09:28.091Z,16.27
2022-08-20T06:12:02.277Z,20.60
2022-08-20T06:14:30.758Z,16.33
2022-08-20T06:17:05.402Z,11.27
2022-08-20T06:19:34.137Z,16.35
2022-08-20T06:22:02.456Z,13.68
2022-08-20T06:24:45.505Z,11.95
2022-08-20T06:27:16.748Z,10.88
2022-08-20T06:29:45.085Z,12.73
2022-08-20T06:32:13.175Z,16.08
2022-08-20T06:34:49.797Z,13.70
2022-08-20T06:37:21.668Z,17.38
2022-08-20T06:39:49.962Z,15.82
2022-08-20T06:42:21.093Z,14.73
2022-08-20T06:44:50.846Z,16.13
2022-08-20T06:47:20.068Z,14.52
2022-08-20T06:49:48.681Z,10.02
2022-08-20T06:52:18.136Z,14.48
2022-08-20T06:54:46.969Z,12.75
2022-08-20T06:57:15.767Z,18.70
2022-08-20T06:59:45.146Z,12.85
2022-08-20T07:02:28.452Z,14.23
2022-08-20T07:04:58.591Z,12.02
2022-08-20T07:07:26.663Z,8.27
2022-08-20T07:10:00.776Z,15.57
2022-08-20T07:12:28.925Z,13.80
2022-08-20T07:14:58.312Z,11.38
2022-08-20T07:17:26.367Z,11.43
2022-08-20T07:19:54.429Z,11.05
2022-08-20T07:22:22.413Z,16.00
2022-08-20T07:24:50.506Z,12.32
2022-08-20T07:27:22.266Z,13.90
2022-08-20T07:30:12.196Z,12.32
2022-08-20T07:32:43.477Z,9.15
2022-08-20T07:35:16.769Z,14.02
2022-08-20T07:37:46.785Z,8.57
2022-08-20T07:40:21.297Z,10.20
2022-08-20T07:42:52.321Z,14.18
2022-08-20T07:45:20.701Z,12.63
2022-08-20T07:47:53.719Z,10.65
2022-08-20T07:50:25.096Z,11.10
2022-08-20T07:52:54.114Z,10.07
2022-08-20T07:55:22.970Z,9.00
2022-08-20T07:57:51.710Z,8.43
2022-08-20T08:00:21.738Z,10.52
2022-08-20T08:02:51.238Z,8.98
2022-08-20T08:05:19.519Z,8.82
2022-08-20T08:07:47.983Z,10.40
2022-08-20T08:10:19.600Z,10.27
2022-08-20T08:12:53.480Z,6.93
2022-08-20T08:15:25.768Z,15.40
2022-08-20T08:17:59.993Z,10.50
2022-08-20T08:20:28.090Z,11.77
2022-08-20T08:22:56.355Z,10.40
2022-08-20T08:25:24.523Z,6.53
2022-08-20T08:27:52.611Z,8.45
2022-08-20T08:30:20.976Z,10.25
2022-08-20T08:33:06.342Z,9.00
2022-08-20T08:35:38.285Z,10.43
2022-08-20T08:38:09.473Z,8.85
2022-08-20T08:40:42.954Z,11.85
2022-08-20T08:43:14.649Z,13.57
2022-08-20T08:46:01.548Z,8.27
2022-08-20T08:48:36.265Z,9.57
2022-08-20T08:51:12.358Z,10.73
2022-08-20T08:53:43.338Z,11.27
2022-08-20T08:56:11.958Z,8.85
2022-08-20T08:58:39.999Z,11.20
2022-08-20T09:01:13.775Z,9.77
2022-08-20T09:04:05.154Z,8.52
2022-08-20T09:06:34.710Z,8.80
2022-08-20T09:09:05.123Z,7.25
2022-08-20T09:11:48.230Z,11.63
2022-08-20T09:14:16.543Z,9.07
2022-08-20T09:16:52.948Z,7.05
2022-08-20T09:19:21.756Z,12.07
2022-08-20T09:21:51.430Z,8.88
2022-08-20T09:24:19.530Z,8.52
2022-08-20T09:26:47.668Z,11.48
2022-08-20T09:29:16.088Z,10.23
2022-08-20T09:31:45.182Z,7.72
2022-08-20T09:34:14.724Z,6.95
2022-08-20T09:36:42.742Z,9.43
2022-08-20T09:39:12.623Z,8.38
2022-08-20T09:41:41.506Z,12.13
2022-08-20T09:44:09.517Z,7.53
2022-08-20T09:46:37.917Z,9.50
2022-08-20T09:49:05.947Z,7.68
2022-08-20T09:52:01.614Z,7.43
2022-08-20T09:54:33.832Z,7.75
2022-08-20T09:57:32.921Z,5.25
2022-08-20T10:00:28.812Z,6.97
2022-08-20T10:04:03.155Z,8.35
2022-08-20T10:07:12.344Z,6.70
2022-08-20T10:21:55.608Z,9.98
2022-08-20T10:24:24.572Z,9.10
2022-08-20T10:26:55.545Z,7.53
2022-08-20T10:29:24.039Z,6.47
2022-08-20T10:31:52.327Z,8.23
2022-08-20T10:34:22.098Z,4.85
2022-08-20T10:36:50.430Z,7.63
2022-08-20T10:39:18.796Z,8.15
2022-08-20T10:41:47.089Z,6.47
2022-08-20T10:44:15.359Z,9.35
2022-08-20T10:46:45.806Z,5.97
2022-08-20T10:49:14.086Z,5.95
2022-08-20T10:51:43.871Z,7.38
2022-08-20T10:54:12.745Z,8.75
2022-08-20T10:56:41.240Z,5.53
2022-08-20T10:59:10.639Z,5.63
2022-08-20T11:01:39.097Z,7.53
2022-08-20T11:04:07.477Z,6.35
2022-08-20T11:06:35.704Z,8.02
2022-08-20T11:09:05.491Z,4.38
2022-08-20T11:11:37.589Z,7.10
2022-08-20T11:14:05.874Z,7.45
2022-08-20T11:16:34.177Z,5.55
2022-08-20T11:19:02.437Z,6.75
2022-08-20T11:21:31.108Z,7.72
2022-08-20T11:24:02.785Z,6.07
2022-08-20T11:26:32.868Z,4.28
2022-08-20T11:29:01.153Z,7.22
2022-08-20T11:31:29.467Z,7.75
2022-08-20T11:33:57.766Z,8.45
2022-08-20T11:36:26.515Z,6.47
2022-08-20T11:38:54.869Z,8.15
2022-08-20T11:41:23.149Z,5.28
2022-08-20T11:44:17.479Z,11.98
2022-08-20T11:46:41.243Z,7.38
2022-08-20T11:49:09.501Z,8.95
2022-08-20T11:51:49.099Z,7.78
2022-08-20T11:54:18.319Z,11.32
2022-08-20T11:56:46.643Z,6.95
2022-08-20T11:59:16.688Z,7.85
2022-08-20T12:01:49.905Z,5.90
2022-08-20T12:04:33.606Z,4.05
2022-08-20T12:07:10.449Z,7.28
2022-08-20T12:09:40.109Z,10.18
2022-08-20T12:12:20.629Z,6.15
2022-08-20T12:14:50.514Z,5.53
2022-08-20T12:17:23.526Z,5.38
2022-08-20T12:19:54.088Z,9.30
2022-08-20T12:22:24.738Z,11.10
2022-08-20T12:24:54.176Z,10.85
2022-08-20T12:27:23.833Z,5.95
2022-08-20T12:29:54.972Z,8.02
2022-08-20T12:32:24.777Z,10.15
2022-08-20T12:34:53.702Z,10.05
2022-08-20T12:37:23.801Z,7.45
2022-08-20T12:39:53.869Z,7.32
2022-08-20T12:42:22.891Z,7.13
2022-08-20T12:44:51.606Z,8.32
2022-08-20T12:47:27.028Z,5.35
2022-08-20T12:49:57.053Z,11.55
2022-08-20T12:52:27.000Z,9.20
2022-08-20T12:54:56.424Z,8.10
2022-08-20T12:57:31.946Z,7.43
2022-08-20T13:00:03.735Z,10.95
2022-08-20T13:02:34.549Z,8.43
2022-08-20T13:05:05.200Z,7.82
2022-08-20T13:07:34.214Z,6.55
2022-08-20T13:10:03.298Z,5.70
2022-08-20T13:12:31.640Z,10.95
2022-08-20T13:15:00.013Z,10.02
2022-08-20T13:17:38.044Z,9.95
2022-08-20T13:20:11.973Z,10.40
2022-08-20T13:22:40.470Z,6.47
2022-08-20T13:25:11.022Z,8.77
2022-08-20T13:27:41.632Z,10.63
2022-08-20T13:30:15.875Z,6.63
2022-08-20T13:32:44.278Z,8.77
2022-08-20T13:35:15.462Z,9.93
2022-08-20T13:37:44.132Z,8.35
2022-08-20T13:40:13.610Z,11.18
2022-08-20T13:42:42.132Z,6.72
2022-08-20T13:45:11.264Z,7.97
2022-08-20T13:47:40.957Z,7.07
2022-08-20T13:50:12.098Z,12.52
2022-08-20T13:52:42.714Z,10.32
2022-08-20T13:55:14.046Z,7.45
2022-08-20T13:57:43.769Z,8.18
2022-08-20T14:00:17.124Z,6.40
2022-08-20T14:02:46.101Z,8.20
2022-08-20T14:05:19.131Z,6.50
2022-08-20T14:07:50.123Z,10.73
2022-08-20T14:10:21.989Z,14.02
2022-08-20T14:12:50.329Z,8.20
2022-08-20T14:15:19.313Z,8.32
2022-08-20T14:17:52.225Z,8.85
2022-08-20T14:20:22.831Z,12.07
2022-08-20T14:22:52.622Z,14.23
2022-08-20T14:25:22.852Z,9.57
2022-08-20T14:27:52.429Z,9.38
2022-08-20T14:30:23.171Z,10.07
2022-08-20T14:32:52.224Z,7.90
2022-08-20T14:35:20.945Z,9.35
2022-08-20T14:37:52.114Z,13.02
2022-08-20T14:40:23.389Z,10.88
2022-08-20T14:42:52.150Z,13.90
2022-08-20T14:45:20.982Z,8.52
2022-08-20T14:47:53.810Z,9.80
2022-08-20T14:50:26.190Z,7.88
2022-08-20T14:52:55.504Z,8.38
2022-08-20T14:55:27.611Z,10.73
2022-08-20T14:57:56.147Z,10.27
2022-08-20T15:00:26.524Z,9.23
2022-08-20T15:02:55.008Z,14.88
2022-08-20T15:05:23.772Z,11.88
2022-08-20T15:07:54.125Z,12.02
2022-08-20T15:10:27.136Z,9.38
2022-08-20T15:12:55.588Z,13.18
2022-08-20T15:15:25.401Z,8.27
2022-08-20T15:17:56.119Z,10.05
2022-08-20T15:20:27.250Z,9.20
2022-08-20T15:22:56.062Z,7.95
2022-08-20T15:25:27.628Z,12.68
2022-08-20T15:28:05.756Z,10.50
2022-08-20T15:30:34.100Z,7.38
2022-08-20T15:33:02.812Z,10.93
2022-08-20T15:35:31.941Z,11.38
2022-08-20T15:38:00.656Z,7.38
2022-08-20T15:40:32.906Z,11.50
2022-08-20T15:43:03.039Z,9.50
2022-08-20T15:45:31.963Z,8.90
2022-08-20T15:48:04.303Z,12.30
2022-08-20T15:50:51.517Z,8.75
2022-08-20T15:53:34.541Z,9.68
2022-08-20T15:56:18.535Z,12.63
2022-08-20T15:59:05.944Z,7.70
2022-08-20T16:01:42.451Z,9.70
2022-08-20T16:04:25.639Z,10.55
2022-08-20T16:06:58.314Z,10.32
2022-08-20T16:09:44.975Z,6.75
2022-08-20T16:12:19.122Z,9.45
2022-08-20T16:14:49.308Z,9.70
2022-08-20T16:17:22.541Z,7.43
2022-08-20T16:20:01.899Z,11.55
2022-08-20T16:22:32.983Z,9.68
2022-08-20T16:25:01.523Z,12.27
2022-08-20T16:27:39.133Z,10.43
2022-08-20T16:30:11.179Z,10.95
2022-08-20T16:32:42.906Z,11.27
2022-08-20T16:35:30.398Z,10.90
2022-08-20T16:38:08.127Z,10.70
2022-08-20T16:40:44.361Z,10.35
2022-08-20T16:43:24.650Z,14.30
2022-08-20T16:45:59.965Z,15.07
2022-08-20T16:48:33.696Z,14.57
2022-08-20T16:51:07.897Z,14.80
2022-08-20T16:53:36.819Z,17.27
2022-08-20T16:56:06.293Z,12.90
2022-08-20T16:58:36.125Z,11.68
2022-08-20T17:01:11.177Z,15.98
2022-08-20T17:03:41.010Z,11.00
2022-08-20T17:06:29.567Z,10.95
2022-08-20T17:08:58.390Z,16.55
2022-08-20T17:11:32.742Z,14.93
2022-08-20T17:14:11.391Z,9.00
2022-08-20T17:16:44.311Z,11.77
2022-08-20T17:19:20.295Z,11.68
2022-08-20T17:21:50.680Z,9.10
2022-08-20T17:24:26.220Z,13.80
2022-08-20T17:26:59.699Z,10.90
2022-08-20T17:29:31.927Z,12.48
2022-08-20T17:32:02.443Z,13.07
2022-08-20T17:34:33.434Z,12.85
2022-08-20T17:37:06.922Z,9.27
2022-08-20T17:39:35.322Z,11.02
2022-08-20T17:42:08.177Z,10.98
2022-08-20T17:44:43.540Z,15.05
2022-08-20T17:47:16.451Z,8.30
2022-08-20T17:50:01.830Z,13.63
2022-08-20T17:52:37.948Z,11.63
2022-08-20T17:55:08.538Z,8.43
2022-08-20T17:57:39.990Z,11.25
2022-08-20T18:00:14.264Z,12.75
2022-08-20T18:02:43.087Z,14.20
2022-08-20T18:05:17.390Z,12.77
2022-08-20T18:07:55.239Z,12.95
2022-08-20T18:10:26.051Z,7.95
2022-08-20T18:13:01.982Z,10.73
2022-08-20T18:15:35.726Z,10.38
2022-08-20T18:18:23.318Z,12.70
2022-08-20T18:21:11.658Z,10.50
2022-08-20T18:23:47.798Z,12.98
2022-08-20T18:26:22.153Z,10.10
2022-08-20T18:28:57.793Z,13.30
2022-08-20T18:31:30.032Z,12.35
2022-08-20T18:33:59.034Z,9.32
2022-08-20T18:36:30.600Z,15.73
2022-08-20T18:39:03.584Z,12.35
2022-08-20T18:41:33.990Z,8.98
2022-08-20T18:44:09.756Z,12.68
2022-08-20T18:46:52.161Z,9.65
2022-08-20T18:49:29.333Z,16.00
2022-08-20T18:51:58.532Z,12.05
2022-08-20T18:54:30.714Z,8.55
2022-08-20T18:57:08.101Z,10.48
2022-08-20T18:59:42.913Z,12.85
2022-08-20T19:02:24.344Z,13.23
2022-08-20T19:05:02.099Z,11.88
2022-08-20T19:07:48.011Z,10.98
2022-08-20T19:10:35.702Z,12.05
2022-08-20T19:13:43.262Z,13.02
2022-08-20T19:16:18.183Z,7.85
2022-08-20T19:18:54.447Z,12.55
2022-08-20T19:21:29.958Z,8.18
2022-08-20T19:24:00.788Z,11.55
2022-08-20T19:26:31.666Z,12.18
2022-08-20T19:29:03.806Z,17.48
2022-08-20T19:31:35.401Z,12.20
2022-08-20T19:34:22.350Z,13.68
2022-08-20T19:36:57.215Z,11.23
2022-08-20T19:39:26.548Z,13.63
2022-08-20T19:41:59.360Z,11.32
2022-08-20T19:44:33.996Z,7.85
2022-08-20T19:47:03.557Z,10.95
2022-08-20T19:49:42.865Z,13.77
2022-08-20T19:52:23.287Z,15.52
2022-08-20T19:54:54.422Z,10.65
2022-08-20T19:57:25.918Z,13.27
2022-08-20T19:59:58.477Z,15.65
2022-08-20T20:02:30.648Z,14.57
2022-08-20T20:05:00.708Z,14.93
2022-08-20T20:07:36.563Z,12.35
2022-08-20T20:10:08.881Z,13.93
2022-08-20T20:12:37.759Z,19.27
2022-08-20T20:15:07.844Z,12.15
2022-08-20T20:17:38.506Z,11.85
2022-08-20T20:20:22.712Z,15.85
2022-08-20T20:22:54.105Z,14.82
2022-08-20T20:25:25.448Z,13.48
2022-08-20T20:27:55.736Z,16.88
2022-08-20T20:30:28.630Z,12.60
2022-08-20T20:32:59.209Z,15.38
2022-08-20T20:35:33.231Z,14.82
2022-08-20T20:38:04.154Z,14.85
2022-08-20T20:40:36.162Z,14.07
2022-08-20T20:43:09.193Z,17.63
2022-08-20T20:45:40.714Z,14.27
2022-08-20T20:48:20.761Z,11.48
2022-08-20T20:50:52.681Z,13.57
2022-08-20T20:53:51.216Z,15.98
2022-08-20T20:56:29.991Z,12.40
2022-08-20T20:59:01.232Z,12.02
2022-08-20T21:01:45.737Z,11.75
2022-08-20T21:04:19.046Z,15.07
2022-08-20T21:06:48.926Z,15.20
2022-08-20T21:09:17.513Z,12.32
2022-08-20T21:11:46.545Z,12.18
2022-08-20T21:14:15.632Z,15.88
2022-08-20T21:16:44.683Z,17.50
2022-08-20T21:19:14.466Z,14.45
2022-08-20T21:21:43.886Z,15.70
2022-08-20T21:24:13.904Z,15.02
2022-08-20T21:26:42.691Z,14.48
2022-08-20T21:29:14.344Z,14.70
2022-08-20T21:31:45.556Z,11.77
2022-08-20T21:34:16.422Z,14.48
2022-08-20T21:36:45.064Z,16.52
2022-08-20T21:39:15.535Z,15.77
2022-08-20T21:41:45.189Z,14.25
2022-08-20T21:44:21.309Z,14.35
2022-08-20T21:46:50.110Z,13.43
2022-08-20T21:49:19.664Z,11.88
2022-08-20T21:51:48.234Z,12.82
2022-08-20T21:54:18.540Z,15.05
2022-08-20T21:56:49.709Z,16.42
2022-08-20T21:59:18.446Z,13.00
2022-08-20T22:01:47.020Z,11.95
2022-08-20T22:04:15.348Z,18.10
2022-08-20T22:06:43.662Z,15.88
2022-08-20T22:09:12.061Z,14.35
2022-08-20T22:11:41.814Z,16.88
2022-08-20T22:14:11.462Z,16.60
2022-08-20T22:16:42.335Z,15.80
2022-08-20T22:19:16.210Z,16.15
2022-08-20T22:21:45.246Z,15.77
2022-08-20T22:24:14.925Z,19.02
2022-08-20T22:26:44.538Z,16.00
2022-08-20T22:29:13.759Z,18.90
2022-08-20T22:31:43.499Z,13.70
2022-08-20T22:34:12.663Z,13.25
2022-08-20T22:36:40.935Z,15.63
2022-08-20T22:39:09.484Z,15.40
2022-08-20T22:41:37.625Z,13.18
2022-08-20T22:44:07.142Z,16.52
2022-08-20T22:46:41.481Z,18.73
2022-08-20T22:49:14.938Z,18.00
2022-08-20T22:51:44.467Z,17.65
2022-08-20T22:54:16.319Z,16.60
2022-08-20T22:56:44.389Z,15.43
2022-08-20T22:59:14.290Z,15.98
2022-08-20T23:01:45.550Z,17.27
2022-08-20T23:04:18.466Z,17.85
2022-08-20T23:06:46.668Z,16.60
2022-08-20T23:09:14.767Z,17.08
2022-08-20T23:11:49.053Z,17.45
2022-08-20T23:14:18.817Z,16.25
2022-08-20T23:16:53.581Z,15.85
2022-08-20T23:19:23.513Z,15.60
2022-08-20T23:21:53.382Z,20.05
2022-08-20T23:24:21.566Z,14.05
2022-08-20T23:26:53.050Z,16.88
2022-08-20T23:29:25.801Z,17.70
2022-08-20T23:31:55.752Z,16.60
2022-08-20T23:34:23.926Z,15.02
2022-08-20T23:36:52.521Z,17.40
2022-08-20T23:39:21.037Z,15.93
2022-08-20T23:41:49.229Z,16.13
2022-08-20T23:44:25.918Z,16.75
2022-08-20T23:46:57.966Z,12.90
2022-08-20T23:49:26.585Z,18.15
2022-08-20T23:51:54.694Z,18.35
2022-08-20T23:54:22.901Z,13.82
2022-08-20T23:56:51.213Z,18.05
2022-08-20T23:59:19.682Z,14.77
